createdAt,value
2018-09-20T00:01:57.579Z,156.73
2018-09-20T00:04:35.201Z,131.90
2018-09-20T00:07:12.618Z,184.57
2018-09-20T00:09:50.002Z,275.60
2018-09-20T00:12:28.131Z,46.43
2018-09-20T00:15:06.456Z,4.53
2018-09-20T00:17:45.674Z,4.37
2018-09-20T00:20:26.381Z,4.23
2018-09-20T00:23:04.756Z,4.30
2018-09-20T00:25:42.865Z,4.20
2018-09-20T00:28:20.960Z,4.23
2018-09-20T00:30:59.087Z,4.53
2018-09-20T00:33:36.390Z,4.40
2018-09-20T00:36:14.333Z,3.93
2018-09-20T00:38:53.113Z,4.73
2018-09-20T00:41:31.576Z,4.00
2018-09-20T00:44:12.141Z,3.93
2018-09-20T00:46:53.617Z,4.67
2018-09-20T00:49:30.884Z,4.83
2018-09-20T00:52:09.094Z,3.97
2018-09-20T00:54:47.052Z,3.47
2018-09-20T00:57:25.905Z,3.27
2018-09-20T01:00:04.745Z,4.17
2018-09-20T01:02:42.015Z,4.30
2018-09-20T01:05:20.656Z,4.13
2018-09-20T01:07:59.170Z,4.23
2018-09-20T01:10:39.537Z,4.07
2018-09-20T01:13:16.793Z,4.50
2018-09-20T01:15:55.145Z,4.50
2018-09-20T01:18:34.568Z,3.83
2018-09-20T01:21:28.042Z,4.20
2018-09-20T01:24:15.713Z,4.13
2018-09-20T01:26:56.660Z,4.83
2018-09-20T01:29:40.132Z,3.97
2018-09-20T01:32:18.998Z,4.33
2018-09-20T01:35:05.814Z,4.30
2018-09-20T01:37:51.245Z,4.93
2018-09-20T01:40:31.470Z,3.90
2018-09-20T01:43:15.339Z,4.43
2018-09-20T01:45:55.034Z,3.63
2018-09-20T01:48:35.668Z,4.53
2018-09-20T01:51:15.202Z,4.60
2018-09-20T01:53:55.635Z,4.40
2018-09-20T01:56:37.951Z,4.90
2018-09-20T01:59:22.578Z,4.40
2018-09-20T02:02:00.491Z,5.27
2018-09-20T02:04:38.218Z,3.87
2018-09-20T02:07:19.735Z,4.77
2018-09-20T02:10:00.719Z,4.40
2018-09-20T02:12:39.893Z,3.90
2018-09-20T02:15:23.454Z,3.73
2018-09-20T02:18:03.409Z,4.93
2018-09-20T02:20:42.392Z,4.40
2018-09-20T02:23:24.587Z,4.70
2018-09-20T02:26:09.541Z,3.90
2018-09-20T02:28:47.911Z,3.80
2018-09-20T02:31:31.046Z,4.57
2018-09-20T02:34:11.596Z,4.13
2018-09-20T02:36:58.874Z,5.30
2018-09-20T02:39:38.968Z,4.80
2018-09-20T02:42:19.517Z,4.60
2018-09-20T02:44:58.369Z,4.80
2018-09-20T02:47:38.251Z,3.63
2018-09-20T02:50:18.892Z,3.53
2018-09-20T02:52:58.037Z,3.97
2018-09-20T02:55:39.266Z,4.50
2018-09-20T02:58:16.972Z,5.33
2018-09-20T03:00:54.652Z,4.20
2018-09-20T03:03:36.672Z,4.40
2018-09-20T03:06:22.365Z,5.00
2018-09-20T03:09:06.758Z,4.20
2018-09-20T03:11:48.372Z,4.03
2018-09-20T03:14:26.527Z,4.03
2018-09-20T03:17:07.017Z,4.67
2018-09-20T03:19:44.981Z,4.27
2018-09-20T03:22:24.813Z,4.70
2018-09-20T03:25:05.598Z,4.43
2018-09-20T03:27:43.933Z,4.10
2018-09-20T03:30:22.935Z,4.37
2018-09-20T03:33:02.819Z,5.03
2018-09-20T03:35:41.413Z,4.70
2018-09-20T03:38:20.078Z,4.70
2018-09-20T03:40:58.664Z,4.93
2018-09-20T03:43:36.679Z,4.77
2018-09-20T03:46:16.546Z,4.67
2018-09-20T03:48:54.084Z,4.67
2018-09-20T03:51:36.281Z,4.27
2018-09-20T03:54:13.372Z,4.57
2018-09-20T03:56:51.638Z,5.23
2018-09-20T03:59:31.196Z,4.60
2018-09-20T04:02:10.572Z,4.47
2018-09-20T04:04:49.467Z,4.80
2018-09-20T04:07:30.127Z,4.93
2018-09-20T04:10:18.497Z,6.27
2018-09-20T04:13:00.646Z,5.00
2018-09-20T04:15:44.374Z,4.90
2018-09-20T04:18:23.609Z,5.20
2018-09-20T04:21:11.513Z,5.33
2018-09-20T04:24:00.077Z,5.30
2018-09-20T04:26:39.986Z,5.57
2018-09-20T04:29:20.663Z,4.63
2018-09-20T04:32:00.358Z,5.37
2018-09-20T04:34:42.168Z,6.60
2018-09-20T04:37:24.475Z,5.30
2018-09-20T04:40:05.209Z,5.30
2018-09-20T04:42:55.051Z,5.10
2018-09-20T04:45:39.255Z,4.50
2018-09-20T04:48:22.818Z,4.80
2018-09-20T04:51:03.679Z,4.90
2018-09-20T04:53:50.266Z,4.27
2018-09-20T04:56:36.312Z,5.07
2018-09-20T04:59:20.923Z,5.53
2018-09-20T05:02:03.834Z,5.20
2018-09-20T05:04:44.627Z,5.90
2018-09-20T05:07:23.475Z,5.63
2018-09-20T05:10:17.079Z,5.77
2018-09-20T05:13:09.310Z,5.73
2018-09-20T05:15:51.971Z,6.03
2018-09-20T05:18:30.734Z,5.00
2018-09-20T05:21:21.240Z,5.00
2018-09-20T05:24:05.247Z,15.37
2018-09-20T05:26:48.274Z,154.73
2018-09-20T05:29:29.699Z,103.17
2018-09-20T05:32:12.163Z,106.03
2018-09-20T05:34:55.983Z,20.70
2018-09-20T05:37:47.214Z,4.47
2018-09-20T05:40:32.888Z,3.90
2018-09-20T05:43:12.423Z,4.87
2018-09-20T05:45:52.918Z,81.70
2018-09-20T05:51:39.420Z,5.13
2018-09-20T05:54:17.854Z,73.50
2018-09-20T05:56:57.163Z,149.87
2018-09-20T05:59:35.859Z,7.23
2018-09-20T06:02:14.306Z,144.07
2018-09-20T06:04:52.910Z,115.90
2018-09-20T06:07:30.905Z,46.77
2018-09-20T06:10:10.064Z,125.10
2018-09-20T06:12:51.543Z,156.72
2018-09-20T06:15:29.911Z,198.10
2018-09-20T06:18:13.474Z,78.70
2018-09-20T06:20:53.785Z,150.40
2018-09-20T06:23:32.909Z,141.10
2018-09-20T06:26:13.304Z,148.37
2018-09-20T06:28:56.996Z,197.77
2018-09-20T06:31:35.531Z,154.77
2018-09-20T06:34:14.393Z,227.40
2018-09-20T06:36:55.708Z,229.10
2018-09-20T06:39:35.812Z,204.37
2018-09-20T06:42:27.987Z,187.40
2018-09-20T06:45:11.748Z,176.93
2018-09-20T06:48:02.276Z,179.57
2018-09-20T06:53:35.026Z,235.77
2018-09-20T06:56:17.795Z,239.17
2018-09-20T06:59:00.413Z,220.67
2018-09-20T07:01:46.505Z,213.50
2018-09-20T07:04:27.577Z,218.17
2018-09-20T07:07:13.531Z,213.00
2018-09-20T07:09:55.593Z,164.00
2018-09-20T07:12:35.726Z,144.53
2018-09-20T07:15:15.385Z,143.43
2018-09-20T07:17:56.882Z,176.40
2018-09-20T07:20:37.375Z,151.93
2018-09-20T07:23:18.567Z,145.33
2018-09-20T07:25:59.519Z,195.53
2018-09-20T07:32:24.475Z,213.97
2018-09-20T07:35:04.121Z,150.00
2018-09-20T07:37:44.162Z,206.70
2018-09-20T07:40:20.374Z,162.07
2018-09-20T07:42:58.700Z,149.33
2018-09-20T07:45:37.847Z,211.17
2018-09-20T07:48:16.677Z,234.17
2018-09-20T07:50:54.186Z,199.17
2018-09-20T07:53:31.032Z,167.73
2018-09-20T07:56:07.403Z,121.90
2018-09-20T07:58:43.517Z,91.77
2018-09-20T08:01:22.056Z,98.03
2018-09-20T08:04:01.106Z,115.47
2018-09-20T08:06:38.578Z,66.07
2018-09-20T08:09:15.175Z,45.67
2018-09-20T08:11:52.248Z,113.70
2018-09-20T08:14:28.272Z,43.63
2018-09-20T08:17:04.761Z,171.10
2018-09-20T08:19:42.778Z,65.97
2018-09-20T08:22:22.430Z,43.10
2018-09-20T08:25:00.817Z,61.37
2018-09-20T08:27:41.059Z,133.70
2018-09-20T08:30:19.479Z,100.07
2018-09-20T08:32:56.296Z,97.63
2018-09-20T08:35:33.442Z,57.33
2018-09-20T08:38:11.032Z,40.77
2018-09-20T08:40:48.142Z,95.13
2018-09-20T08:43:25.248Z,41.07
2018-09-20T08:46:06.749Z,36.87
2018-09-20T08:48:45.888Z,35.47
2018-09-20T08:51:26.476Z,35.17
2018-09-20T08:54:05.141Z,36.10
2018-09-20T08:56:47.901Z,37.10
2018-09-20T08:59:25.327Z,36.27
2018-09-20T09:02:01.652Z,41.13
2018-09-20T09:04:37.627Z,56.63
2018-09-20T09:07:13.845Z,77.17
2018-09-20T09:09:50.008Z,41.70
2018-09-20T09:12:28.483Z,42.43
2018-09-20T09:15:08.025Z,40.27
2018-09-20T09:17:46.360Z,40.20
2018-09-20T09:20:23.804Z,38.63
2018-09-20T09:23:00.460Z,38.87
2018-09-20T09:25:36.493Z,350.90
2018-09-20T09:28:13.317Z,2.50
2018-09-20T09:30:51.675Z,5.10
2018-09-20T09:33:31.365Z,4.67
2018-09-20T09:36:09.655Z,5.20
2018-09-20T09:38:48.346Z,4.53
2018-09-20T09:41:24.940Z,4.97
2018-09-20T09:44:01.340Z,5.07
2018-09-20T09:46:37.677Z,5.10
2018-09-20T09:49:14.631Z,4.90
2018-09-20T09:51:52.312Z,97.83
2018-09-20T09:54:29.582Z,182.40
2018-09-20T09:57:06.483Z,5.40
2018-09-20T09:59:42.935Z,5.33
2018-09-20T10:02:19.616Z,4.63
2018-09-20T10:04:58.120Z,5.70
2018-09-20T10:07:35.701Z,5.80
2018-09-20T10:10:15.152Z,4.50
2018-09-20T10:12:53.123Z,4.63
2018-09-20T10:15:30.400Z,5.67
2018-09-20T10:18:06.409Z,5.07
2018-09-20T10:20:42.865Z,5.40
2018-09-20T10:23:19.213Z,4.93
2018-09-20T10:25:58.647Z,4.67
2018-09-20T10:28:36.665Z,4.87
2018-09-20T10:31:14.822Z,4.77
2018-09-20T10:33:51.222Z,4.63
2018-09-20T10:36:27.036Z,4.30
2018-09-20T10:39:03.323Z,5.37
2018-09-20T10:41:40.180Z,4.23
2018-09-20T10:44:20.103Z,4.70
2018-09-20T10:47:02.600Z,4.87
2018-09-20T10:49:43.200Z,5.13
2018-09-20T10:52:22.436Z,4.67
2018-09-20T10:55:00.716Z,4.83
2018-09-20T10:57:39.308Z,4.47
2018-09-20T11:00:16.353Z,4.70
2018-09-20T11:02:53.332Z,4.40
2018-09-20T11:05:29.513Z,4.90
2018-09-20T11:08:06.688Z,5.00
2018-09-20T11:10:44.907Z,6.23
2018-09-20T11:13:23.601Z,21.80
2018-09-20T11:16:02.331Z,4.83
2018-09-20T11:18:40.260Z,3.83
2018-09-20T11:21:18.845Z,303.40
2018-09-20T11:23:55.620Z,674.97
2018-09-20T11:26:31.820Z,4.37
2018-09-20T11:29:08.487Z,3.83
2018-09-20T11:31:48.376Z,4.23
2018-09-20T11:34:26.515Z,5.10
2018-09-20T11:37:07.242Z,4.43
2018-09-20T11:39:47.789Z,4.13
2018-09-20T11:42:24.871Z,134.60
2018-09-20T11:45:05.968Z,4.30
2018-09-20T11:47:44.272Z,4.40
2018-09-20T11:50:22.026Z,4.00
2018-09-20T11:52:59.939Z,4.63
2018-09-20T11:55:37.269Z,4.57
2018-09-20T11:58:13.621Z,4.43
2018-09-20T12:00:50.783Z,4.73
2018-09-20T12:03:30.491Z,4.67
2018-09-20T12:06:10.832Z,4.93
2018-09-20T12:08:49.844Z,5.20
2018-09-20T12:11:29.709Z,4.87
2018-09-20T12:14:07.815Z,327.47
2018-09-20T12:16:44.626Z,28.07
2018-09-20T12:19:21.665Z,4.10
2018-09-20T12:21:57.867Z,4.40
2018-09-20T12:56:51.575Z,2.92
